createdAt,value
2019-01-04T00:00:35.354Z,93.06
2019-01-04T00:01:35.602Z,93.1
2019-01-04T00:02:35.443Z,93.2
2019-01-04T00:03:35.754Z,93.13
2019-01-04T00:04:36.677Z,93.08
2019-01-04T00:05:35.504Z,93
2019-01-04T00:06:35.509Z,92.96
2019-01-04T00:07:35.522Z,93.19
2019-01-04T00:08:35.567Z,93.23
2019-01-04T00:09:35.742Z,92.92
2019-01-04T00:10:35.902Z,92.85
2019-01-04T00:11:35.571Z,92.8
2019-01-04T00:12:35.581Z,92.65
2019-01-04T00:13:35.343Z,92.5
2019-01-04T00:14:35.553Z,92.78
2019-01-04T00:15:35.355Z,92.83
2019-01-04T00:16:35.579Z,92.68
2019-01-04T00:17:35.390Z,92.77
2019-01-04T00:18:35.526Z,92.72
2019-01-04T00:19:35.408Z,92.28
2019-01-04T00:20:35.311Z,92.29
2019-01-04T00:21:35.385Z,92.29
2019-01-04T00:22:35.329Z,92.59
2019-01-04T00:23:35.402Z,92.58
2019-01-04T00:24:35.334Z,92.67
2019-01-04T00:25:35.316Z,92.45
2019-01-04T00:26:35.421Z,92.94
2019-01-04T00:27:35.436Z,92.93
2019-01-04T00:28:35.314Z,92.71
2019-01-04T00:29:35.360Z,92.84
2019-01-04T00:30:35.285Z,92.83
2019-01-04T00:31:35.435Z,92.83
2019-01-04T00:32:35.498Z,93.23
2019-01-04T00:33:35.425Z,93.15
2019-01-04T00:34:35.278Z,92.97
2019-01-04T00:35:35.311Z,93.09
2019-01-04T00:36:35.341Z,93.44
2019-01-04T00:37:35.298Z,93.19
2019-01-04T00:38:35.612Z,92.96
2019-01-04T00:39:35.480Z,92.53
2019-01-04T00:40:35.355Z,92.34
2019-01-04T00:41:35.333Z,92.61
2019-01-04T00:42:35.323Z,92.82
2019-01-04T00:43:35.545Z,92.7
2019-01-04T00:44:35.330Z,92.7
2019-01-04T00:45:35.642Z,93.09
2019-01-04T00:46:35.359Z,92.8
2019-01-04T00:47:35.591Z,92.83
2019-01-04T00:48:35.509Z,92.86
2019-01-04T00:49:35.549Z,92.74
2019-01-04T00:50:35.490Z,92.82
2019-01-04T00:51:35.274Z,92.7
2019-01-04T00:52:35.419Z,92.76
2019-01-04T00:53:35.272Z,93.02
2019-01-04T00:54:35.408Z,92.54
2019-01-04T00:55:35.307Z,92.46
2019-01-04T00:56:35.399Z,92.77
2019-01-04T00:57:35.727Z,92.7
2019-01-04T00:58:35.328Z,92.53
2019-01-04T00:59:35.608Z,92.98
2019-01-04T01:00:35.787Z,93.16
2019-01-04T01:01:35.435Z,93.19
2019-01-04T01:02:35.489Z,92.92
2019-01-04T01:03:35.289Z,92.72
2019-01-04T01:04:35.695Z,92.58
2019-01-04T01:05:35.689Z,92.74
2019-01-04T01:06:35.517Z,92.77
2019-01-04T01:07:35.644Z,93.06
2019-01-04T01:08:35.641Z,93.13
2019-01-04T01:09:35.385Z,92.95
2019-01-04T01:10:35.338Z,92.96
2019-01-04T01:11:35.462Z,92.76
2019-01-04T01:12:35.390Z,93.01
2019-01-04T01:13:35.404Z,92.74
2019-01-04T01:14:35.349Z,92.91
2019-01-04T01:15:35.381Z,92.98
2019-01-04T01:16:35.483Z,93.06
2019-01-04T01:17:35.554Z,92.82
2019-01-04T01:18:35.530Z,92.69
2019-01-04T01:19:35.533Z,92.7
2019-01-04T01:20:35.252Z,92.5
2019-01-04T01:21:35.310Z,92.55
2019-01-04T01:22:35.267Z,92.39
2019-01-04T01:23:35.296Z,92.84
2019-01-04T01:24:35.344Z,92.72
2019-01-04T01:25:35.555Z,92.76
2019-01-04T01:26:35.320Z,92.49
2019-01-04T01:27:35.661Z,92.87
2019-01-04T01:28:35.469Z,92.78
2019-01-04T01:29:35.331Z,93.04
2019-01-04T01:30:35.356Z,92.97
2019-01-04T01:31:35.459Z,92.68
2019-01-04T01:32:35.415Z,92.59
2019-01-04T01:33:35.227Z,92.78
2019-01-04T01:34:35.400Z,92.81
2019-01-04T01:35:35.254Z,92.62
2019-01-04T01:36:35.210Z,92.68
2019-01-04T01:37:35.531Z,92.65
2019-01-04T01:38:35.459Z,92.84
2019-01-04T01:39:35.567Z,92.87
2019-01-04T01:40:35.584Z,93.07
2019-01-04T01:41:35.391Z,92.83
2019-01-04T01:42:35.410Z,93.06
2019-01-04T01:43:35.216Z,92.81
2019-01-04T01:44:35.426Z,93.04
2019-01-04T01:45:35.236Z,92.94
2019-01-04T01:46:35.544Z,92.88
2019-01-04T01:47:35.418Z,92.88
2019-01-04T01:48:35.197Z,92.7
2019-01-04T01:49:35.282Z,92.68
2019-01-04T01:50:35.260Z,92.95
2019-01-04T01:51:35.360Z,92.98
2019-01-04T01:52:35.229Z,92.8
2019-01-04T01:53:35.210Z,92.83
2019-01-04T01:54:35.241Z,92.84
2019-01-04T01:55:35.316Z,92.97
2019-01-04T01:56:35.381Z,92.86
2019-01-04T01:57:35.413Z,92.86
2019-01-04T01:58:35.416Z,93
2019-01-04T01:59:36.038Z,92.9
2019-01-04T02:00:35.239Z,92.95
2019-01-04T02:01:35.235Z,92.89
2019-01-04T02:02:35.198Z,92.88
2019-01-04T02:03:35.202Z,92.58
2019-01-04T02:04:35.365Z,92.87
2019-01-04T02:05:35.401Z,92.88
2019-01-04T02:06:35.218Z,92.63
2019-01-04T02:07:35.202Z,92.54
2019-01-04T02:08:35.599Z,92.4
2019-01-04T02:09:35.269Z,92.94
2019-01-04T02:10:35.159Z,93.05
2019-01-04T02:11:35.256Z,92.59
2019-01-04T02:12:35.571Z,92.33
2019-01-04T02:13:35.167Z,92.27
2019-01-04T02:14:35.201Z,92.44
2019-01-04T02:15:35.425Z,92.85
2019-01-04T02:16:35.184Z,92.75
2019-01-04T02:17:35.199Z,92.9
2019-01-04T02:18:35.260Z,92.63
2019-01-04T02:19:35.169Z,92.79
2019-01-04T02:20:35.216Z,92.72
2019-01-04T02:21:35.299Z,92.95
2019-01-04T02:22:35.507Z,92.63
2019-01-04T02:23:35.989Z,92.97
2019-01-04T02:24:35.339Z,93.08
2019-01-04T02:25:35.338Z,92.99
2019-01-04T02:26:35.350Z,93.09
2019-01-04T02:27:35.312Z,92.91
2019-01-04T02:28:35.392Z,92.87
2019-01-04T02:29:35.337Z,92.8
2019-01-04T02:30:35.159Z,92.95
2019-01-04T02:31:36.454Z,93.14
2019-01-04T02:32:35.229Z,93.11
2019-01-04T02:33:35.356Z,93.22
2019-01-04T02:34:35.149Z,93.04
2019-01-04T02:35:35.455Z,93.14
2019-01-04T02:36:35.387Z,93.06
2019-01-04T02:37:36.009Z,93.11
2019-01-04T02:38:35.516Z,93.13
2019-01-04T02:39:35.438Z,93.21
2019-01-04T02:40:35.311Z,93.23
2019-01-04T02:41:35.285Z,93.34
2019-01-04T02:42:35.243Z,93.4
2019-01-04T02:43:35.516Z,93.21
2019-01-04T02:44:35.111Z,93.1
2019-01-04T02:45:35.141Z,93.11
2019-01-04T02:46:35.140Z,93.48
2019-01-04T02:47:35.292Z,93.21
2019-01-04T02:48:35.110Z,92.96
2019-01-04T02:49:35.122Z,92.84
2019-01-04T02:50:35.158Z,92.97
2019-01-04T02:51:35.293Z,93.07
2019-01-04T02:52:35.153Z,93.13
2019-01-04T02:53:35.198Z,93.17
2019-01-04T02:54:35.111Z,93.01
2019-01-04T02:55:35.359Z,92.99
2019-01-04T02:56:35.355Z,92.62
2019-01-04T02:57:35.366Z,92.63
2019-01-04T02:58:35.110Z,92.71
2019-01-04T02:59:35.279Z,92.41
2019-01-04T03:00:35.158Z,92.56
2019-01-04T03:01:35.123Z,92.71
2019-01-04T03:02:35.513Z,92.54
2019-01-04T03:03:35.250Z,92.66
2019-01-04T03:04:35.313Z,92.47
2019-01-04T03:05:35.195Z,92.86
2019-01-04T03:06:35.066Z,92.5
2019-01-04T03:07:35.437Z,92.47
2019-01-04T03:08:35.378Z,92.22
2019-01-04T03:09:35.340Z,92.57
2019-01-04T03:10:35.278Z,92.5
2019-01-04T03:11:35.940Z,92.24
2019-01-04T03:12:35.299Z,92.16
2019-01-04T03:13:35.283Z,92.58
2019-01-04T03:14:35.292Z,92.73
2019-01-04T03:15:35.067Z,93.11
2019-01-04T03:16:35.363Z,93.26
2019-01-04T03:17:35.213Z,93.15
2019-01-04T03:18:35.204Z,93.08
2019-01-04T03:19:35.083Z,92.8
2019-01-04T03:20:35.100Z,92.97
2019-01-04T03:21:35.237Z,92.97
2019-01-04T03:22:35.909Z,92.78
2019-01-04T03:23:35.317Z,92.8
2019-01-04T03:24:35.914Z,92.75
2019-01-04T03:25:35.225Z,92.98
2019-01-04T03:26:35.111Z,93.24
2019-01-04T03:27:35.262Z,93.09
2019-01-04T03:28:35.102Z,92.91
2019-01-04T03:29:35.310Z,93.11
2019-01-04T03:30:35.188Z,93.16
2019-01-04T03:31:35.501Z,93.63
2019-01-04T03:32:35.064Z,93.48
2019-01-04T03:33:35.164Z,93.47
2019-01-04T03:34:35.076Z,93.26
2019-01-04T03:35:35.370Z,93.21
2019-01-04T03:36:35.235Z,93.19
2019-01-04T03:37:35.353Z,93.1
2019-01-04T03:38:35.058Z,93.22
2019-01-04T03:39:35.085Z,93.14
2019-01-04T03:40:35.049Z,93.17
2019-01-04T03:41:35.368Z,93.29
2019-01-04T03:42:35.442Z,93.36
2019-01-04T03:43:35.043Z,93.1
2019-01-04T03:44:35.320Z,93.03
2019-01-04T03:45:35.085Z,93.1
2019-01-04T03:46:35.367Z,93.08
2019-01-04T03:47:35.114Z,92.92
2019-01-04T03:48:35.129Z,92.85
2019-01-04T03:49:35.165Z,92.79
2019-01-04T03:50:35.050Z,93.38
2019-01-04T03:51:35.043Z,93.18
2019-01-04T03:52:35.056Z,93.25
2019-01-04T03:53:35.192Z,93.44
2019-01-04T03:54:35.070Z,93.61
2019-01-04T03:55:35.105Z,93.59
2019-01-04T03:56:35.079Z,93.64
2019-01-04T03:57:35.019Z,93.64
2019-01-04T03:58:35.023Z,93.39
2019-01-04T03:59:35.056Z,93.57
2019-01-04T04:00:35.045Z,93.33
2019-01-04T04:01:35.064Z,93.67
2019-01-04T04:02:35.053Z,93.79
2019-01-04T04:03:35.009Z,93.18
2019-01-04T04:04:35.019Z,92.93
2019-01-04T04:05:35.014Z,93.06
2019-01-04T04:06:35.003Z,93.09
2019-01-04T04:07:35.218Z,92.96
2019-01-04T04:08:35.259Z,93.13
2019-01-04T04:09:35.016Z,93.01
2019-01-04T04:10:35.010Z,92.94
2019-01-04T04:11:35.164Z,93.33
2019-01-04T04:12:35.007Z,93.04
2019-01-04T04:13:35.341Z,93.03
2019-01-04T04:14:35.161Z,92.99
2019-01-04T04:15:35.116Z,93.09
2019-01-04T04:16:35.262Z,93.06
2019-01-04T04:17:35.213Z,93.21
2019-01-04T04:18:35.315Z,93.33
2019-01-04T04:19:35.827Z,93.39
2019-01-04T04:20:35.342Z,93.32
2019-01-04T04:21:35.165Z,93.29
2019-01-04T04:22:35.046Z,93.42
2019-01-04T04:23:35.212Z,93.34
2019-01-04T04:24:34.970Z,93.51
2019-01-04T04:25:35.008Z,93.47
2019-01-04T04:26:35.322Z,93.4
2019-01-04T04:27:35.151Z,93.71
2019-01-04T04:28:35.021Z,93.69
2019-01-04T04:29:34.979Z,93.51
2019-01-04T04:30:35.024Z,93.59
2019-01-04T04:31:34.975Z,93.74
2019-01-04T04:32:35.468Z,93.53
2019-01-04T04:33:34.983Z,93.76
2019-01-04T04:34:34.992Z,93.63
2019-01-04T04:35:35.118Z,93.54
2019-01-04T04:36:34.995Z,93.97
2019-01-04T04:37:35.317Z,94.15
2019-01-04T04:38:35.313Z,94.33
2019-01-04T04:39:35.115Z,94.74
2019-01-04T04:40:35.141Z,94.77
2019-01-04T04:41:34.971Z,94.66
2019-01-04T04:42:35.035Z,94.83
2019-01-04T04:43:34.973Z,94.28
2019-01-04T04:44:35.071Z,94.16
2019-01-04T04:45:35.106Z,94.31
2019-01-04T04:46:35.605Z,94.14
2019-01-04T04:47:35.480Z,94.27
2019-01-04T04:48:35.297Z,94.19
2019-01-04T04:49:35.151Z,94.12
2019-01-04T04:50:35.222Z,94.57
2019-01-04T04:51:35.808Z,94.46
2019-01-04T04:52:35.768Z,94.4
2019-01-04T04:53:36.002Z,94.39
2019-01-04T04:54:35.132Z,94.24
2019-01-04T04:55:35.142Z,94.09
2019-01-04T04:56:35.037Z,94.19
2019-01-04T04:57:35.147Z,94.5
2019-01-04T04:58:35.077Z,94.57
2019-01-04T04:59:34.983Z,94.84
2019-01-04T05:00:35.188Z,95.36
2019-01-04T05:01:35.250Z,95.8
2019-01-04T05:02:35.220Z,95.78
2019-01-04T05:03:34.983Z,95.98
2019-01-04T05:04:35.026Z,95.64
2019-01-04T05:05:35.096Z,95.35
2019-01-04T05:06:35.032Z,95.57
2019-01-04T05:07:35.398Z,95.17
2019-01-04T05:08:35.090Z,95.83
2019-01-04T05:09:34.971Z,95.81
2019-01-04T05:10:34.925Z,96.03
2019-01-04T05:11:35.470Z,95.75
2019-01-04T05:12:34.939Z,95.79
2019-01-04T05:13:35.147Z,95.42
2019-01-04T05:14:35.102Z,95.31
2019-01-04T05:15:35.093Z,94.85
2019-01-04T05:16:34.935Z,94.84
2019-01-04T05:17:35.244Z,94.85
2019-01-04T05:18:35.070Z,95.19
2019-01-04T05:19:35.071Z,95.39
2019-01-04T05:20:35.128Z,95.05
2019-01-04T05:21:34.905Z,94.9
2019-01-04T05:22:34.935Z,94.72
2019-01-04T05:23:35.296Z,94.92
2019-01-04T05:24:35.063Z,94.62
2019-01-04T05:25:34.883Z,94.77
2019-01-04T05:26:35.148Z,95.16
2019-01-04T05:27:35.402Z,95.09
2019-01-04T05:28:35.011Z,95.08
2019-01-04T05:29:34.887Z,94.87
2019-01-04T05:30:35.115Z,95.13
2019-01-04T05:31:35.231Z,94.82
2019-01-04T05:32:34.941Z,94.7
2019-01-04T05:33:34.923Z,94.67
2019-01-04T05:34:34.952Z,95.3
2019-01-04T05:35:34.876Z,95.32
2019-01-04T05:36:35.017Z,95.27
2019-01-04T05:37:34.975Z,95.42
2019-01-04T05:38:34.898Z,95.46
2019-01-04T05:39:34.953Z,95.52
2019-01-04T05:40:34.865Z,95.4
2019-01-04T05:41:34.999Z,95.51
2019-01-04T05:42:34.904Z,95.53
2019-01-04T05:43:34.982Z,95.7
2019-01-04T05:44:34.988Z,95.53
2019-01-04T05:45:34.968Z,95.45
2019-01-04T05:46:34.977Z,95.54
2019-01-04T05:47:34.979Z,95.67
2019-01-04T05:48:34.997Z,95.68
2019-01-04T05:49:35.024Z,95.52
2019-01-04T05:50:34.928Z,95.89
2019-01-04T05:51:35.053Z,95.7
2019-01-04T05:52:35.198Z,95.83
2019-01-04T05:53:35.080Z,95.94
2019-01-04T05:54:34.927Z,96.12
2019-01-04T05:55:34.988Z,96.02
2019-01-04T05:56:35.080Z,95.76
2019-01-04T05:57:34.911Z,95.87
2019-01-04T05:58:34.983Z,95.9
2019-01-04T05:59:35.689Z,95.99
2019-01-04T06:00:35.004Z,95.82
2019-01-04T06:01:35.036Z,96.03
2019-01-04T06:02:34.891Z,96.15
2019-01-04T06:03:34.843Z,95.99
2019-01-04T06:04:35.066Z,96.05
2019-01-04T06:05:34.937Z,96.08
2019-01-04T06:06:35.264Z,95.97
2019-01-04T06:07:35.056Z,96.13
2019-01-04T06:08:35.007Z,95.9
2019-01-04T06:09:35.213Z,96.21
2019-01-04T06:10:35.018Z,96.45
2019-01-04T06:11:35.140Z,96.21
2019-01-04T06:12:35.012Z,96.06
2019-01-04T06:13:35.124Z,96.24
2019-01-04T06:14:35.250Z,96.16
2019-01-04T06:15:34.998Z,95.88
2019-01-04T06:16:35.012Z,96.05
2019-01-04T06:17:35.040Z,96.16
2019-01-04T06:18:34.840Z,96.11
2019-01-04T06:19:35.055Z,96.22
2019-01-04T06:20:35.681Z,95.97
2019-01-04T06:21:34.816Z,96.02
2019-01-04T06:22:35.079Z,96.29
2019-01-04T06:23:35.668Z,96.02
2019-01-04T06:24:35.539Z,95.94
2019-01-04T06:25:35.024Z,95.79
2019-01-04T06:26:34.827Z,95.78
2019-01-04T06:27:35.695Z,96.07
2019-01-04T06:28:35.202Z,95.8
2019-01-04T06:29:35.053Z,95.58
2019-01-04T06:30:34.823Z,95.91
2019-01-04T06:31:34.843Z,95.71
2019-01-04T06:32:35.508Z,95.74
2019-01-04T06:33:35.256Z,95.75
2019-01-04T06:34:34.898Z,95.87
2019-01-04T06:35:35.103Z,95.47
2019-01-04T06:36:35.072Z,95.69
2019-01-04T06:37:34.871Z,95.53
2019-01-04T06:38:35.001Z,95.66
2019-01-04T06:39:35.033Z,95.64
2019-01-04T06:40:34.818Z,95.51
2019-01-04T06:41:35.039Z,95.41
2019-01-04T06:42:35.108Z,95.58
2019-01-04T06:43:35.219Z,95.77
2019-01-04T06:44:34.791Z,95.58
2019-01-04T06:45:35.065Z,95.52
2019-01-04T06:46:35.632Z,95.76
2019-01-04T06:47:34.962Z,95.42
2019-01-04T06:48:34.986Z,95.37
2019-01-04T06:49:34.953Z,95.37
2019-01-04T06:50:35.166Z,95.29
2019-01-04T06:51:35.188Z,95.5
2019-01-04T06:52:34.984Z,95.44
2019-01-04T06:53:35.102Z,95.32
2019-01-04T06:54:34.982Z,95.42
2019-01-04T06:55:35.187Z,95.48
2019-01-04T06:56:34.944Z,95.46
2019-01-04T06:57:34.955Z,95.48
2019-01-04T06:58:34.952Z,95.48
2019-01-04T06:59:35.010Z,95.49
2019-01-04T07:00:35.631Z,95.19
2019-01-04T07:01:34.877Z,95.16
2019-01-04T07:02:34.911Z,95.23
2019-01-04T07:03:35.177Z,95.05
2019-01-04T07:04:34.987Z,95.09
2019-01-04T07:05:35.046Z,95.09
2019-01-04T07:06:34.859Z,94.79
2019-01-04T07:07:34.905Z,95.09
2019-01-04T07:08:34.825Z,94.92
2019-01-04T07:09:34.913Z,94.95
2019-01-04T07:10:34.961Z,95.15
2019-01-04T07:11:34.781Z,95.05
2019-01-04T07:12:34.937Z,94.94
2019-01-04T07:13:35.045Z,95.11
2019-01-04T07:14:34.877Z,94.98
2019-01-04T07:15:35.216Z,94.59
2019-01-04T07:16:34.831Z,94.83
2019-01-04T07:17:34.734Z,94.74
2019-01-04T07:18:34.908Z,94.97
2019-01-04T07:19:34.730Z,94.87
2019-01-04T07:20:34.938Z,94.96
2019-01-04T07:21:34.934Z,94.61
2019-01-04T07:22:34.983Z,94.64
2019-01-04T07:23:34.878Z,94.89
2019-01-04T07:24:34.917Z,94.94
2019-01-04T07:25:34.739Z,95.09
2019-01-04T07:26:35.027Z,94.92
2019-01-04T07:27:34.946Z,94.76
2019-01-04T07:28:34.948Z,94.69
2019-01-04T07:29:34.946Z,94.87
2019-01-04T07:30:34.821Z,94.78
2019-01-04T07:31:35.093Z,94.75
2019-01-04T07:32:34.739Z,94.87
2019-01-04T07:33:35.053Z,94.63
2019-01-04T07:34:34.841Z,94.84
2019-01-04T07:35:34.961Z,94.82
2019-01-04T07:36:34.954Z,94.65
2019-01-04T07:37:35.538Z,94.78
2019-01-04T07:38:35.556Z,94.7
2019-01-04T07:39:34.734Z,94.72
2019-01-04T07:40:34.725Z,95.2
2019-01-04T07:41:35.419Z,95.33
2019-01-04T07:42:35.032Z,95.47
2019-01-04T07:43:34.832Z,95.32
2019-01-04T07:44:34.850Z,95.29
2019-01-04T07:45:35.033Z,95.47
2019-01-04T07:46:34.714Z,95.46
2019-01-04T07:47:34.968Z,94.91
2019-01-04T07:48:34.983Z,94.86
2019-01-04T07:49:34.737Z,94.87
2019-01-04T07:50:34.936Z,95.42
2019-01-04T07:51:35.090Z,94.97
2019-01-04T07:52:34.755Z,94.91
2019-01-04T07:53:34.863Z,94.56
2019-01-04T07:54:34.789Z,95.39
2019-01-04T07:55:34.916Z,95.55
2019-01-04T07:56:34.777Z,94.83
2019-01-04T07:57:34.887Z,94.93
2019-01-04T07:58:35.103Z,94.92
2019-01-04T07:59:34.729Z,94.88
2019-01-04T08:00:35.034Z,95.05
2019-01-04T08:01:34.913Z,95.1
2019-01-04T08:02:34.948Z,95.57
2019-01-04T08:03:34.862Z,95.08
2019-01-04T08:04:34.696Z,94.94
2019-01-04T08:05:34.734Z,95.05
2019-01-04T08:06:34.785Z,94.92
2019-01-04T08:07:34.743Z,94.92
2019-01-04T08:08:34.688Z,94.99
2019-01-04T08:09:34.961Z,94.75
2019-01-04T08:10:34.800Z,94.83
2019-01-04T08:11:35.499Z,94.98
2019-01-04T08:12:34.677Z,95
2019-01-04T08:13:35.118Z,95.1
2019-01-04T08:14:34.727Z,94.85
2019-01-04T08:15:34.889Z,94.98
2019-01-04T08:16:34.977Z,95.34
2019-01-04T08:17:34.893Z,95.58
2019-01-04T08:18:34.886Z,95.49
2019-01-04T08:19:34.771Z,95.77
2019-01-04T08:20:34.917Z,95.64
2019-01-04T08:21:34.683Z,95.58
2019-01-04T08:22:34.946Z,95.41
2019-01-04T08:23:34.999Z,95.54
2019-01-04T08:24:34.686Z,95.91
2019-01-04T08:25:34.921Z,95.47
2019-01-04T08:26:34.877Z,96.27
2019-01-04T08:27:35.506Z,95.73
2019-01-04T08:28:34.894Z,95.63
2019-01-04T08:29:34.794Z,95.6
2019-01-04T08:30:34.713Z,95.6
2019-01-04T08:31:34.873Z,95.71
2019-01-04T08:32:34.919Z,95.76
2019-01-04T08:33:34.865Z,95.53
2019-01-04T08:34:34.899Z,95.17
2019-01-04T08:35:34.667Z,95.94
2019-01-04T08:36:34.724Z,96.07
2019-01-04T08:37:34.713Z,96.06
2019-01-04T08:38:34.765Z,96.07
2019-01-04T08:39:35.018Z,95.89
2019-01-04T08:40:34.640Z,95.44
2019-01-04T08:41:34.654Z,95.35
2019-01-04T08:42:34.893Z,95.19
2019-01-04T08:43:35.040Z,95.34
2019-01-04T08:44:34.747Z,95.04
2019-01-04T08:45:34.967Z,95.2
2019-01-04T08:46:34.585Z,95.53
2019-01-04T08:47:34.976Z,95.56
2019-01-04T08:48:34.933Z,95.25
2019-01-04T08:49:34.670Z,95.18
2019-01-04T08:50:34.712Z,95.38
2019-01-04T08:51:34.711Z,95.12
2019-01-04T08:52:34.695Z,95.22
2019-01-04T08:53:34.636Z,95.29
2019-01-04T08:54:35.050Z,95.05
2019-01-04T08:55:34.722Z,95.09
2019-01-04T08:56:34.627Z,95.15
2019-01-04T08:57:34.640Z,95.07
2019-01-04T08:58:34.631Z,95
2019-01-04T08:59:35.396Z,94.85
2019-01-04T09:00:34.920Z,94.95
2019-01-04T09:01:34.696Z,94.75
2019-01-04T09:02:34.637Z,95
2019-01-04T09:03:34.604Z,94.91
2019-01-04T09:04:34.749Z,94.8
2019-01-04T09:05:34.722Z,94.85
2019-01-04T09:06:34.934Z,94.83
2019-01-04T09:07:34.684Z,94.96
2019-01-04T09:08:34.949Z,94.87
2019-01-04T09:09:34.730Z,94.92
2019-01-04T09:10:34.897Z,94.85
2019-01-04T09:11:34.747Z,94.63
2019-01-04T09:12:34.720Z,94.52
2019-01-04T09:13:34.852Z,94.63
2019-01-04T09:14:34.839Z,94.71
2019-01-04T09:15:34.933Z,94.56
2019-01-04T09:16:34.672Z,94.66
2019-01-04T09:17:34.746Z,94.76
2019-01-04T09:18:34.682Z,95.51
2019-01-04T09:19:35.056Z,95.08
2019-01-04T09:20:34.719Z,94.78
2019-01-04T09:21:35.008Z,95.18
2019-01-04T09:22:35.211Z,95.02
2019-01-04T09:23:34.991Z,95.09
2019-01-04T09:24:34.586Z,95.08
2019-01-04T09:25:34.645Z,95.1
2019-01-04T09:26:34.967Z,94.75
2019-01-04T09:27:34.702Z,95
2019-01-04T09:28:34.688Z,95.09
2019-01-04T09:29:34.615Z,95.37
2019-01-04T09:30:34.975Z,95.15
2019-01-04T09:31:34.553Z,95.09
2019-01-04T09:32:34.778Z,95.23
2019-01-04T09:33:34.768Z,95.22
2019-01-04T09:34:34.963Z,94.97
2019-01-04T09:35:34.659Z,95.27
2019-01-04T09:36:34.950Z,95.09
2019-01-04T09:37:34.624Z,95.14
2019-01-04T09:38:34.652Z,95.12
2019-01-04T09:39:34.621Z,95.6
2019-01-04T09:40:34.611Z,95.53
2019-01-04T09:41:35.136Z,95.44
2019-01-04T09:42:34.812Z,95.08
2019-01-04T09:43:34.550Z,95.15
2019-01-04T09:44:34.980Z,95.28
2019-01-04T09:45:34.980Z,95.51
2019-01-04T09:46:34.914Z,95.29
2019-01-04T09:47:34.558Z,95.28
2019-01-04T09:48:34.822Z,95.34
2019-01-04T09:49:34.524Z,95.5
2019-01-04T09:50:34.565Z,95.44
2019-01-04T09:51:34.719Z,95.54
2019-01-04T09:52:34.923Z,95.35
2019-01-04T09:53:34.628Z,95.43
2019-01-04T09:54:34.629Z,95.13
2019-01-04T09:55:36.132Z,95.07
2019-01-04T09:56:34.366Z,95.15
2019-01-04T09:57:34.941Z,95.04
2019-01-04T09:58:34.563Z,95.23
2019-01-04T09:59:34.747Z,95.01
2019-01-04T10:00:34.885Z,94.97
2019-01-04T10:01:35.377Z,95.02
2019-01-04T10:02:34.518Z,95.11
2019-01-04T10:03:34.513Z,95
2019-01-04T10:04:35.066Z,95.11
2019-01-04T10:05:34.671Z,94.96
2019-01-04T10:06:34.887Z,95.07
2019-01-04T10:07:34.729Z,95.17
2019-01-04T10:08:34.682Z,95.06
2019-01-04T10:09:34.942Z,94.9
2019-01-04T10:10:34.596Z,94.86
2019-01-04T10:11:35.353Z,95.04
2019-01-04T10:12:34.749Z,95
2019-01-04T10:13:34.741Z,95.02
2019-01-04T10:14:34.367Z,94.87
2019-01-04T10:15:34.495Z,94.92
2019-01-04T10:16:34.536Z,95.13
2019-01-04T10:17:34.573Z,94.87
2019-01-04T10:18:35.330Z,95.63
2019-01-04T10:19:34.600Z,95.01
2019-01-04T10:20:34.879Z,94.99
2019-01-04T10:21:35.342Z,94.9
2019-01-04T10:22:34.644Z,94.98
2019-01-04T10:23:34.585Z,95.15
2019-01-04T10:24:34.706Z,94.94
2019-01-04T10:25:34.548Z,94.9
2019-01-04T10:26:34.668Z,94.77
2019-01-04T10:27:34.508Z,94.94
2019-01-04T10:28:34.512Z,94.67
2019-01-04T10:29:34.712Z,94.81
2019-01-04T10:30:34.588Z,94.78
2019-01-04T10:31:34.471Z,94.59
2019-01-04T10:32:34.692Z,94.62
2019-01-04T10:33:34.722Z,94.56
2019-01-04T10:34:34.714Z,94.51
2019-01-04T10:35:34.496Z,94.33
2019-01-04T10:36:34.610Z,94.69
2019-01-04T10:37:34.644Z,94.79
2019-01-04T10:38:34.516Z,94.9
2019-01-04T10:39:34.466Z,94.82
2019-01-04T10:40:34.679Z,94.63
2019-01-04T10:41:34.564Z,94.6
2019-01-04T10:42:34.511Z,94.58
2019-01-04T10:43:34.671Z,94.85
2019-01-04T10:44:34.453Z,94.7
2019-01-04T10:45:34.480Z,94.8
2019-01-04T10:46:34.431Z,94.66
2019-01-04T10:47:34.951Z,94.77
2019-01-04T10:48:34.481Z,94.71
2019-01-04T10:49:34.591Z,94.3
2019-01-04T10:50:34.542Z,94.39
2019-01-04T10:51:34.434Z,94.53
2019-01-04T10:52:34.534Z,94.43
2019-01-04T10:53:34.471Z,94.54
2019-01-04T10:54:34.598Z,94.55
2019-01-04T10:55:34.509Z,94.47
2019-01-04T10:56:34.618Z,94.49
2019-01-04T10:57:34.917Z,94.68
2019-01-04T10:58:34.537Z,94.61
2019-01-04T10:59:34.586Z,94.58
2019-01-04T11:00:34.620Z,94.32
2019-01-04T11:01:34.477Z,94.5
2019-01-04T11:02:34.568Z,94.56
2019-01-04T11:03:34.776Z,94.55
2019-01-04T11:04:34.588Z,94.41
2019-01-04T11:05:34.701Z,94.41
2019-01-04T11:06:34.685Z,94.34
2019-01-04T11:07:35.002Z,94.42
2019-01-04T11:08:34.609Z,94.6
2019-01-04T11:09:34.412Z,94.54
2019-01-04T11:10:34.712Z,94.27
2019-01-04T11:11:34.542Z,94.28
2019-01-04T11:12:34.562Z,94.31
2019-01-04T11:13:34.516Z,94.32
2019-01-04T11:14:34.616Z,94.13
2019-01-04T11:15:35.041Z,94.03
2019-01-04T11:16:34.473Z,93.97
2019-01-04T11:17:34.757Z,93.77
2019-01-04T11:18:34.468Z,93.76
2019-01-04T11:19:34.419Z,93.38
2019-01-04T11:20:34.411Z,93.23
2019-01-04T11:21:34.559Z,93.25
2019-01-04T11:22:34.545Z,92.75
2019-01-04T11:23:34.717Z,92.57
2019-01-04T11:24:34.992Z,92.68
2019-01-04T11:25:34.443Z,92.6
2019-01-04T11:26:34.878Z,92.35
2019-01-04T11:27:35.247Z,91.91
2019-01-04T11:28:34.512Z,92.09
2019-01-04T11:29:34.465Z,92.07
2019-01-04T11:30:34.408Z,91.81
2019-01-04T11:31:35.251Z,91.79
2019-01-04T11:32:34.956Z,91.9
2019-01-04T11:33:34.679Z,91.66
2019-01-04T11:34:35.237Z,91.57
2019-01-04T11:35:34.790Z,91.41
2019-01-04T11:36:34.610Z,91.35
2019-01-04T11:37:34.708Z,91
2019-01-04T11:38:34.610Z,90.22
2019-01-04T11:39:34.549Z,90.57
2019-01-04T11:40:35.240Z,90.82
2019-01-04T11:41:34.439Z,90.47
2019-01-04T11:42:35.087Z,90.64
2019-01-04T11:43:34.659Z,90.63
2019-01-04T11:44:34.857Z,90.64
2019-01-04T11:45:34.622Z,90.38
2019-01-04T11:46:35.022Z,90.07
2019-01-04T11:47:34.692Z,90.27
2019-01-04T11:48:34.721Z,90.02
2019-01-04T11:49:34.671Z,89.9
2019-01-04T11:50:35.279Z,90.16
2019-01-04T11:51:34.521Z,90.13
2019-01-04T11:52:34.611Z,90.65
2019-01-04T11:53:34.693Z,90.7
2019-01-04T11:54:34.417Z,90.38
2019-01-04T11:55:34.684Z,90.29
2019-01-04T11:56:34.436Z,90.16
2019-01-04T11:57:34.721Z,90.24
2019-01-04T11:58:34.531Z,90.17
2019-01-04T11:59:34.768Z,90.31
2019-01-04T12:00:34.720Z,90.08
2019-01-04T12:01:35.238Z,90.15
2019-01-04T12:02:34.628Z,90.31
2019-01-04T12:03:34.359Z,90.04
2019-01-04T12:04:34.543Z,90.33
2019-01-04T12:05:34.680Z,90.22
2019-01-04T12:06:34.507Z,90.37
2019-01-04T12:07:34.491Z,90.44
2019-01-04T12:08:34.673Z,90.46
2019-01-04T12:09:34.929Z,90.52
2019-01-04T12:10:34.505Z,90.62
2019-01-04T12:11:34.379Z,90.56
2019-01-04T12:12:34.358Z,89.69
2019-01-04T12:13:34.335Z,89.86
2019-01-04T12:14:34.358Z,90.17
2019-01-04T12:15:34.475Z,90.28
2019-01-04T12:16:34.540Z,89.5
2019-01-04T12:17:34.416Z,89.92
2019-01-04T12:18:34.379Z,90.15
2019-01-04T12:19:34.501Z,90.15
2019-01-04T12:20:34.401Z,90.32
2019-01-04T12:21:34.656Z,90.23
2019-01-04T12:22:34.412Z,90.15
2019-01-04T12:23:34.739Z,90.24
2019-01-04T12:24:34.492Z,90.23
2019-01-04T12:25:34.468Z,89.97
2019-01-04T12:26:34.364Z,89.98
2019-01-04T12:27:34.393Z,90.33
2019-01-04T12:28:34.384Z,90.41
2019-01-04T12:29:34.567Z,90.35
2019-01-04T12:30:34.398Z,90.1
2019-01-04T12:31:34.338Z,90.06
2019-01-04T12:32:34.429Z,90.08
2019-01-04T12:33:34.521Z,90.04
2019-01-04T12:34:34.394Z,89.86
2019-01-04T12:35:34.339Z,90.02
2019-01-04T12:36:34.313Z,89.83
2019-01-04T12:37:34.370Z,89.66
2019-01-04T12:38:34.381Z,89.59
2019-01-04T12:39:34.383Z,89.57
2019-01-04T12:40:34.550Z,89.72
2019-01-04T12:41:34.306Z,89.77
2019-01-04T12:42:34.638Z,89.82
2019-01-04T12:43:34.370Z,89.68
2019-01-04T12:44:34.297Z,89.34
2019-01-04T12:45:34.761Z,89.5
2019-01-04T12:46:34.490Z,89.39
2019-01-04T12:47:35.162Z,89.24
2019-01-04T12:48:34.555Z,89.31
2019-01-04T12:49:34.679Z,89.32
2019-01-04T12:50:34.511Z,89.47
2019-01-04T12:51:34.416Z,89.5
2019-01-04T12:52:34.707Z,89.53
2019-01-04T12:53:34.313Z,89.48
2019-01-04T12:54:34.600Z,88.8
2019-01-04T12:55:34.372Z,88.9